createdAt,value
2023-07-11T00:00:53.950Z,11.68
2023-07-11T00:03:21.047Z,9.65
2023-07-11T00:06:08.950Z,9.00
2023-07-11T00:08:38.337Z,10.60
2023-07-11T00:11:07.493Z,9.68
2023-07-11T00:13:34.531Z,9.45
2023-07-11T00:16:04.823Z,10.13
2023-07-11T00:18:32.321Z,14.60
2023-07-11T00:20:59.490Z,12.70
2023-07-11T00:23:26.835Z,10.32
2023-07-11T00:25:54.019Z,10.23
2023-07-11T00:28:21.207Z,11.93
2023-07-11T00:30:51.399Z,11.27
2023-07-11T00:33:18.769Z,11.55
2023-07-11T00:35:51.019Z,11.57
2023-07-11T00:38:17.931Z,13.32
2023-07-11T00:40:47.980Z,16.83
2023-07-11T00:43:20.619Z,11.35
2023-07-11T00:45:50.857Z,12.18
2023-07-11T00:48:19.945Z,11.20
2023-07-11T00:50:52.320Z,11.43
2023-07-11T00:53:19.449Z,12.63
2023-07-11T00:55:47.017Z,11.15
2023-07-11T00:58:15.079Z,12.40
2023-07-11T01:00:42.307Z,11.40
2023-07-11T01:03:11.105Z,13.05
2023-07-11T01:05:40.521Z,14.02
2023-07-11T01:08:08.604Z,12.45
2023-07-11T01:10:35.606Z,10.00
2023-07-11T01:13:03.979Z,11.52
2023-07-11T01:15:30.992Z,13.25
2023-07-11T01:17:57.976Z,14.90
2023-07-11T01:20:24.863Z,14.15
2023-07-11T01:22:53.570Z,14.10
2023-07-11T01:25:20.858Z,14.85
2023-07-11T01:27:48.691Z,10.55
2023-07-11T01:30:20.437Z,11.77
2023-07-11T01:32:49.207Z,13.25
2023-07-11T01:35:17.358Z,12.45
2023-07-11T01:37:44.323Z,13.68
2023-07-11T01:40:19.536Z,13.93
2023-07-11T01:42:46.616Z,11.90
2023-07-11T01:45:13.723Z,14.43
2023-07-11T01:47:40.841Z,13.27
2023-07-11T01:50:08.782Z,12.60
2023-07-11T01:52:35.982Z,13.98
2023-07-11T01:55:02.890Z,10.40
2023-07-11T01:57:29.863Z,12.55
2023-07-11T01:59:56.957Z,12.65
2023-07-11T02:02:23.912Z,11.43
2023-07-11T02:04:50.956Z,12.32
2023-07-11T02:07:17.868Z,11.88
2023-07-11T02:09:44.758Z,13.10
2023-07-11T02:12:12.154Z,15.52
2023-07-11T02:14:41.989Z,13.43
2023-07-11T02:17:09.974Z,15.77
2023-07-11T02:19:37.173Z,13.05
2023-07-11T02:22:04.270Z,12.37
2023-07-11T02:24:31.202Z,14.05
2023-07-11T02:26:58.115Z,15.32
2023-07-11T02:29:25.517Z,13.77
2023-07-11T02:31:52.529Z,13.13
2023-07-11T02:34:19.528Z,14.70
2023-07-11T02:36:46.422Z,13.75
2023-07-11T02:39:19.375Z,16.52
2023-07-11T02:41:46.258Z,12.65
2023-07-11T02:44:13.176Z,15.38
2023-07-11T02:46:40.138Z,12.60
2023-07-11T02:49:10.251Z,11.77
2023-07-11T02:51:40.140Z,13.88
2023-07-11T02:54:08.131Z,10.68
2023-07-11T02:56:35.646Z,14.05
2023-07-11T02:59:03.289Z,13.82
2023-07-11T03:01:33.950Z,14.10
2023-07-11T03:04:01.571Z,13.50
2023-07-11T03:06:28.574Z,14.50
2023-07-11T03:08:57.516Z,14.43
2023-07-11T03:11:24.529Z,13.38
2023-07-11T03:13:51.657Z,14.50
2023-07-11T03:16:18.627Z,13.25
2023-07-11T03:18:45.536Z,12.13
2023-07-11T03:21:12.438Z,12.98
2023-07-11T03:23:39.308Z,12.95
2023-07-11T03:26:06.506Z,12.68
2023-07-11T03:28:33.752Z,15.18
2023-07-11T03:31:00.796Z,11.85
2023-07-11T03:33:27.745Z,13.70
2023-07-11T03:35:54.612Z,11.32
2023-07-11T03:38:21.494Z,12.27
2023-07-11T03:40:50.398Z,12.05
2023-07-11T03:43:17.278Z,14.18
2023-07-11T03:45:50.127Z,13.95
2023-07-11T03:48:32.013Z,12.13
2023-07-11T03:50:58.887Z,11.48
2023-07-11T03:53:25.835Z,13.82
2023-07-11T03:55:52.787Z,12.85
2023-07-11T03:58:19.753Z,11.80
2023-07-11T04:00:52.882Z,13.88
2023-07-11T04:03:19.938Z,13.35
2023-07-11T04:05:46.985Z,12.82
2023-07-11T04:08:13.904Z,11.50
2023-07-11T04:10:40.838Z,13.52
2023-07-11T04:13:07.726Z,12.52
2023-07-11T04:15:34.617Z,11.35
2023-07-11T04:18:01.581Z,13.95
2023-07-11T04:20:28.486Z,12.25
2023-07-11T04:22:55.370Z,13.00
2023-07-11T04:25:22.282Z,11.70
2023-07-11T04:27:49.256Z,13.75
2023-07-11T04:30:17.218Z,14.95
2023-07-11T04:32:44.155Z,11.88
2023-07-11T04:35:15.686Z,11.43
2023-07-11T04:37:42.701Z,14.15
2023-07-11T04:40:11.738Z,13.90
2023-07-11T04:42:39.064Z,11.18
2023-07-11T04:45:07.556Z,13.57
2023-07-11T04:47:34.472Z,13.18
2023-07-11T04:50:03.471Z,13.10
2023-07-11T04:52:30.832Z,10.38
2023-07-11T04:54:58.181Z,11.02
2023-07-11T04:57:25.608Z,11.50
2023-07-11T04:59:52.556Z,11.98
2023-07-11T05:02:19.674Z,11.40
2023-07-11T05:04:46.656Z,14.02
2023-07-11T05:07:14.949Z,11.65
2023-07-11T05:09:58.643Z,12.18
2023-07-11T05:12:26.520Z,11.30
2023-07-11T05:14:53.429Z,12.05
2023-07-11T05:17:20.392Z,12.30
2023-07-11T05:19:48.379Z,12.27
2023-07-11T05:22:15.311Z,10.35
2023-07-11T05:24:42.189Z,12.30
2023-07-11T05:27:09.526Z,12.10
2023-07-11T05:29:40.275Z,11.75
2023-07-11T05:32:07.756Z,10.18
2023-07-11T05:34:36.951Z,12.50
2023-07-11T05:37:05.136Z,12.98
2023-07-11T05:39:32.039Z,11.82
2023-07-11T05:41:59.200Z,11.38
2023-07-11T05:44:26.647Z,11.45
2023-07-11T05:46:53.752Z,13.60
2023-07-11T05:49:20.700Z,11.18
2023-07-11T05:51:47.581Z,14.30
2023-07-11T05:54:14.610Z,11.38
2023-07-11T05:56:42.397Z,12.18
2023-07-11T05:59:10.482Z,12.57
2023-07-11T06:01:37.451Z,13.00
2023-07-11T06:04:17.583Z,12.52
2023-07-11T06:06:44.793Z,15.77
2023-07-11T06:09:20.301Z,11.65
2023-07-11T06:11:49.792Z,10.75
2023-07-11T06:14:18.438Z,11.45
2023-07-11T06:16:48.644Z,10.98
2023-07-11T06:19:17.337Z,11.68
2023-07-11T06:21:46.241Z,11.68
2023-07-11T06:24:13.598Z,11.65
2023-07-11T06:26:40.474Z,11.15
2023-07-11T06:29:07.416Z,11.63
2023-07-11T06:31:34.452Z,10.57
2023-07-11T06:34:01.616Z,11.98
2023-07-11T06:36:28.574Z,11.63
2023-07-11T06:38:55.618Z,13.07
2023-07-11T06:41:22.516Z,14.38
2023-07-11T06:43:49.443Z,13.07
2023-07-11T06:46:16.477Z,11.63
2023-07-11T06:48:44.559Z,11.73
2023-07-11T06:51:11.843Z,12.48
2023-07-11T06:53:38.887Z,12.63
2023-07-11T06:56:06.406Z,11.90
2023-07-11T06:58:33.406Z,13.80
2023-07-11T07:01:09.167Z,10.65
2023-07-11T07:03:40.722Z,12.93
2023-07-11T07:06:11.502Z,12.32
2023-07-11T07:08:38.593Z,10.48
2023-07-11T07:11:06.369Z,11.25
2023-07-11T07:13:33.586Z,10.95
2023-07-11T07:16:01.687Z,10.82
2023-07-11T07:18:33.936Z,11.50
2023-07-11T07:21:00.948Z,11.60
2023-07-11T07:23:28.315Z,11.52
2023-07-11T07:25:57.804Z,10.75
2023-07-11T07:28:25.442Z,11.05
2023-07-11T07:30:53.872Z,10.43
2023-07-11T07:33:24.877Z,10.60
2023-07-11T07:35:59.337Z,10.80
2023-07-11T07:38:29.607Z,10.40
2023-07-11T07:40:58.764Z,11.98
2023-07-11T07:43:26.268Z,9.75
2023-07-11T07:45:54.362Z,11.32
2023-07-11T07:48:22.116Z,9.35
2023-07-11T07:51:11.846Z,10.88
2023-07-11T07:53:39.202Z,10.95
2023-07-11T07:56:10.076Z,9.65
2023-07-11T07:58:44.601Z,12.43
2023-07-11T08:01:13.831Z,11.05
2023-07-11T08:03:41.626Z,10.07
2023-07-11T08:06:16.274Z,12.05
2023-07-11T08:08:45.155Z,10.52
2023-07-11T08:11:13.045Z,10.43
2023-07-11T08:16:23.709Z,9.43
2023-07-11T08:18:57.406Z,11.88
2023-07-11T08:21:24.661Z,11.20
2023-07-11T08:23:51.536Z,13.05
2023-07-11T08:26:21.430Z,11.15
2023-07-11T08:28:48.851Z,10.52
2023-07-11T08:31:16.043Z,12.25
2023-07-11T08:33:43.190Z,10.68
2023-07-11T08:36:10.347Z,10.35
2023-07-11T08:38:37.261Z,12.85
2023-07-11T08:41:20.933Z,10.80
2023-07-11T08:43:49.181Z,9.43
2023-07-11T08:46:19.235Z,11.80
2023-07-11T08:48:50.034Z,10.23
2023-07-11T08:51:38.430Z,11.75
2023-07-11T08:54:21.134Z,10.40
2023-07-11T08:56:50.716Z,11.43
2023-07-11T08:59:52.982Z,10.23
2023-07-11T09:02:28.382Z,12.40
2023-07-11T09:04:55.822Z,13.07
2023-07-11T09:07:40.258Z,10.73
2023-07-11T09:10:17.525Z,9.93
2023-07-11T09:13:15.752Z,13.25
2023-07-11T09:15:55.575Z,11.88
2023-07-11T09:18:40.752Z,12.82
2023-07-11T09:21:23.430Z,10.98
2023-07-11T09:24:20.859Z,11.48
2023-07-11T09:26:51.291Z,12.48
2023-07-11T09:29:18.771Z,11.55
2023-07-11T09:31:51.611Z,11.02
2023-07-11T09:34:25.208Z,10.68
2023-07-11T09:36:53.091Z,11.20
2023-07-11T09:39:29.278Z,12.18
2023-07-11T09:44:32.741Z,14.77
2023-07-11T09:47:13.935Z,10.57
2023-07-11T09:49:40.969Z,9.32
2023-07-11T09:52:23.231Z,12.45
2023-07-11T09:55:03.262Z,12.43
2023-07-11T09:57:35.464Z,10.50
2023-07-11T10:00:24.033Z,11.30
2023-07-11T10:02:51.626Z,12.07
2023-07-11T10:05:22.133Z,12.25
2023-07-11T10:08:07.142Z,11.30
2023-07-11T10:10:34.055Z,11.85
2023-07-11T10:13:26.678Z,11.60
2023-07-11T10:16:00.384Z,13.60
2023-07-11T10:18:31.589Z,11.63
2023-07-11T10:21:02.398Z,14.02
2023-07-11T10:23:29.610Z,14.38
2023-07-11T10:26:08.757Z,10.25
2023-07-11T10:28:45.156Z,10.82
2023-07-11T10:31:16.173Z,12.68
2023-07-11T10:34:01.279Z,10.65
2023-07-11T10:36:52.325Z,13.88
2023-07-11T10:39:30.732Z,11.68
2023-07-11T10:42:27.341Z,11.32
2023-07-11T10:45:10.539Z,10.98
2023-07-11T10:47:40.923Z,10.35
2023-07-11T10:50:31.682Z,10.57
2023-07-11T10:53:02.085Z,13.18
2023-07-11T10:55:35.228Z,11.60
2023-07-11T10:58:03.447Z,13.13
2023-07-11T11:00:51.661Z,10.63
2023-07-11T11:03:27.672Z,12.10
2023-07-11T11:06:00.882Z,11.52
2023-07-11T11:08:54.001Z,12.88
2023-07-11T11:11:40.191Z,11.18
2023-07-11T11:14:19.948Z,11.85
2023-07-11T11:17:00.786Z,11.32
2023-07-11T11:19:48.762Z,11.90
2023-07-11T11:22:38.518Z,11.45
2023-07-11T11:25:16.816Z,10.70
2023-07-11T11:27:51.461Z,10.38
2023-07-11T11:30:35.471Z,11.30
2023-07-11T11:33:09.689Z,10.98
2023-07-11T11:35:52.041Z,12.18
2023-07-11T11:38:37.276Z,10.63
2023-07-11T11:41:10.598Z,11.02
2023-07-11T11:45:43.631Z,11.15
2023-07-11T11:46:30.520Z,14.18
2023-07-11T11:51:30.992Z,12.40
2023-07-11T11:54:18.754Z,11.23
2023-07-11T11:56:48.614Z,14.13
2023-07-11T11:59:21.840Z,13.60
2023-07-11T12:01:54.598Z,10.82
2023-07-11T12:04:31.285Z,10.93
2023-07-11T12:07:21.862Z,11.48
2023-07-11T12:09:54.971Z,12.73
2023-07-11T12:12:23.881Z,11.65
2023-07-11T12:14:53.843Z,11.60
2023-07-11T12:17:33.250Z,12.35
2023-07-11T12:20:08.902Z,10.40
2023-07-11T12:22:38.945Z,11.45
2023-07-11T12:25:09.215Z,11.77
2023-07-11T12:27:36.181Z,12.02
2023-07-11T12:30:44.839Z,11.75
2023-07-11T12:33:34.299Z,11.05
2023-07-11T12:36:23.688Z,13.45
2023-07-11T12:39:14.410Z,10.88
2023-07-11T12:41:45.903Z,12.57
2023-07-11T12:44:15.062Z,15.18
2023-07-11T12:46:45.208Z,10.68
2023-07-11T12:49:31.061Z,10.63
2023-07-11T12:52:10.460Z,13.13
2023-07-11T12:54:37.703Z,12.07
2023-07-11T12:57:09.094Z,11.90
2023-07-11T12:59:52.242Z,10.45
2023-07-11T13:02:28.952Z,11.12
2023-07-11T13:04:58.497Z,11.43
2023-07-11T13:07:31.824Z,11.82
2023-07-11T13:10:03.182Z,11.30
2023-07-11T13:12:35.549Z,10.75
2023-07-11T13:15:29.210Z,9.82
2023-07-11T13:17:56.480Z,10.30
2023-07-11T13:20:33.840Z,11.43
2023-07-11T13:23:00.723Z,12.27
2023-07-11T13:25:36.042Z,14.65
2023-07-11T13:28:03.176Z,12.73
2023-07-11T13:30:45.302Z,12.48
2023-07-11T13:35:53.167Z,12.95
2023-07-11T13:38:20.473Z,10.57
2023-07-11T13:40:47.660Z,10.82
2023-07-11T13:43:20.702Z,14.02
2023-07-11T13:45:50.894Z,12.90
2023-07-11T13:48:24.358Z,11.27
2023-07-11T13:51:33.908Z,10.43
2023-07-11T13:54:26.164Z,10.43
2023-07-11T13:56:55.543Z,12.30
2023-07-11T13:59:36.872Z,12.52
2023-07-11T14:02:14.845Z,13.35
2023-07-11T14:04:42.182Z,13.82
2023-07-11T14:07:13.192Z,10.82
2023-07-11T14:09:40.264Z,11.77
2023-07-11T14:12:10.001Z,11.75
2023-07-11T14:14:39.820Z,11.05
2023-07-11T14:17:13.199Z,10.98
2023-07-11T14:19:41.505Z,10.85
2023-07-11T14:22:19.286Z,12.02
2023-07-11T14:24:48.326Z,10.88
2023-07-11T14:27:17.987Z,11.73
2023-07-11T14:29:46.002Z,11.48
2023-07-11T14:32:15.564Z,12.15
2023-07-11T14:34:43.312Z,12.20
2023-07-11T14:37:18.599Z,11.90
2023-07-11T14:39:49.508Z,10.65
2023-07-11T14:42:23.204Z,13.05
2023-07-11T14:44:50.134Z,13.73
2023-07-11T14:47:17.102Z,10.57
2023-07-11T14:49:44.077Z,12.43
2023-07-11T14:52:28.246Z,12.52
2023-07-11T14:59:55.302Z,14.40
2023-07-11T15:02:28.034Z,12.32
2023-07-11T15:09:57.849Z,10.70
2023-07-11T15:17:28.459Z,10.82
2023-07-11T15:19:56.108Z,11.07
2023-07-11T15:22:26.473Z,11.25
2023-07-11T15:24:54.456Z,10.70
2023-07-11T15:27:22.893Z,12.45
2023-07-11T15:29:49.779Z,11.48
2023-07-11T15:32:21.891Z,14.60
2023-07-11T15:34:48.921Z,10.55
2023-07-11T15:37:16.350Z,15.13
2023-07-11T15:39:46.516Z,11.68
2023-07-11T15:42:24.903Z,11.05
2023-07-11T15:44:54.597Z,12.63
2023-07-11T15:47:21.944Z,12.07
2023-07-11T15:49:51.198Z,13.70
2023-07-11T15:52:20.957Z,11.25
2023-07-11T15:54:48.345Z,11.00
2023-07-11T15:57:22.793Z,12.63
2023-07-11T15:59:50.409Z,11.25
2023-07-11T16:02:20.337Z,10.15
2023-07-11T16:04:47.444Z,11.02
2023-07-11T16:07:16.904Z,13.45
2023-07-11T16:09:43.925Z,11.60
2023-07-11T16:12:17.448Z,12.48
2023-07-11T16:14:44.600Z,14.20
2023-07-11T16:17:20.499Z,11.07
2023-07-11T16:19:55.577Z,12.88
2023-07-11T16:22:24.724Z,12.65
2023-07-11T16:24:51.843Z,11.82
2023-07-11T16:27:18.974Z,13.20
2023-07-11T16:29:49.146Z,11.98
2023-07-11T16:32:16.643Z,11.55
2023-07-11T16:34:45.368Z,12.45
2023-07-11T16:37:30.329Z,15.50
2023-07-11T16:39:57.210Z,10.20
2023-07-11T16:42:24.929Z,12.15
2023-07-11T16:44:51.918Z,11.50
2023-07-11T16:47:19.181Z,12.10
2023-07-11T16:49:50.061Z,11.50
2023-07-11T16:52:17.117Z,10.85
2023-07-11T16:54:44.083Z,12.23
2023-07-11T16:57:15.712Z,12.57
2023-07-11T16:59:42.777Z,11.85
2023-07-11T17:02:23.110Z,12.50
2023-07-11T17:04:51.879Z,15.30
2023-07-11T17:07:18.959Z,11.85
2023-07-11T17:09:45.905Z,13.90
2023-07-11T17:12:13.679Z,13.25
2023-07-11T17:14:40.626Z,11.50
2023-07-11T17:17:15.372Z,10.90
2023-07-11T17:19:42.313Z,11.25
2023-07-11T17:22:15.174Z,14.27
2023-07-11T17:24:42.509Z,15.93
2023-07-11T17:27:16.596Z,11.82
2023-07-11T17:29:44.841Z,13.73
2023-07-11T17:32:14.319Z,13.02
2023-07-11T17:34:41.606Z,11.25
2023-07-11T17:37:32.225Z,12.02
2023-07-11T17:39:59.871Z,13.00
2023-07-11T17:42:28.434Z,11.40
2023-07-11T17:44:56.623Z,11.00
2023-07-11T17:47:36.969Z,12.30
2023-07-11T17:50:16.334Z,12.35
2023-07-11T17:52:43.306Z,12.73
2023-07-11T17:55:11.912Z,11.73
2023-07-11T17:57:40.343Z,16.70
2023-07-11T18:00:21.989Z,14.98
2023-07-11T18:02:59.907Z,12.80
2023-07-11T18:05:28.507Z,18.52
2023-07-11T18:07:55.437Z,11.20
2023-07-11T18:10:31.872Z,11.77
2023-07-11T18:13:10.193Z,13.02
2023-07-11T18:15:40.864Z,13.10
2023-07-11T18:18:23.199Z,15.23
2023-07-11T18:20:50.265Z,11.38
2023-07-11T18:23:17.139Z,11.77
2023-07-11T18:25:44.339Z,12.27
2023-07-11T18:28:14.265Z,13.90
2023-07-11T18:30:41.345Z,13.45
2023-07-11T18:33:08.319Z,13.77
2023-07-11T18:35:37.208Z,13.00
2023-07-11T18:38:04.551Z,14.25
2023-07-11T18:40:33.846Z,13.88
2023-07-11T18:43:02.099Z,13.73
2023-07-11T18:45:29.107Z,11.60
2023-07-11T18:47:57.263Z,12.63
2023-07-11T18:50:33.220Z,15.20
2023-07-11T18:53:00.359Z,14.02
2023-07-11T18:55:27.686Z,14.55
2023-07-11T18:57:54.748Z,12.90
2023-07-11T19:00:25.407Z,12.35
2023-07-11T19:02:52.438Z,13.38
2023-07-11T19:05:19.481Z,15.23
2023-07-11T19:07:46.346Z,13.93
2023-07-11T19:10:18.410Z,15.60
2023-07-11T19:12:45.936Z,15.30
2023-07-11T19:15:17.991Z,14.45
2023-07-11T19:18:08.812Z,13.40
2023-07-11T19:20:37.885Z,15.55
2023-07-11T19:23:26.196Z,13.80
2023-07-11T19:25:54.122Z,13.88
2023-07-11T19:28:30.945Z,13.82
2023-07-11T19:31:03.628Z,12.80
2023-07-11T19:33:30.530Z,12.93
2023-07-11T19:35:58.883Z,12.60
2023-07-11T19:38:30.746Z,12.77
2023-07-11T19:40:57.764Z,13.80
2023-07-11T19:43:25.071Z,14.77
2023-07-11T19:45:54.595Z,11.85
2023-07-11T19:48:24.790Z,14.55
2023-07-11T19:50:56.042Z,13.07
2023-07-11T19:53:24.415Z,15.02
2023-07-11T19:55:53.953Z,12.65
2023-07-11T19:58:29.860Z,18.50
2023-07-11T20:00:59.980Z,19.50
2023-07-11T20:03:28.966Z,13.48
2023-07-11T20:05:56.859Z,16.12
2023-07-11T20:08:29.642Z,13.90
2023-07-11T20:11:04.212Z,15.82
2023-07-11T20:13:32.230Z,14.75
2023-07-11T20:16:02.241Z,17.42
2023-07-11T20:18:31.425Z,18.15
2023-07-11T20:21:00.793Z,14.60
2023-07-11T20:23:28.230Z,16.52
2023-07-11T20:25:57.523Z,13.88
2023-07-11T20:28:24.471Z,14.43
2023-07-11T20:30:53.958Z,16.92
2023-07-11T20:33:21.722Z,16.17
2023-07-11T20:35:51.174Z,13.93
2023-07-11T20:38:20.603Z,16.50
2023-07-11T20:40:48.472Z,16.33
2023-07-11T20:43:15.422Z,14.93
2023-07-11T20:45:44.644Z,17.02
2023-07-11T20:48:20.224Z,13.60
2023-07-11T20:50:47.180Z,16.15
2023-07-11T20:53:14.513Z,16.05
2023-07-11T20:55:47.681Z,14.48
2023-07-11T20:58:17.427Z,16.77
2023-07-11T21:00:44.954Z,15.18
2023-07-11T21:03:16.781Z,17.02
2023-07-11T21:05:45.812Z,16.98
2023-07-11T21:08:18.611Z,14.95
2023-07-11T21:10:45.537Z,15.80
2023-07-11T21:13:13.473Z,14.00
2023-07-11T21:15:41.082Z,16.02
2023-07-11T21:18:13.833Z,14.38
2023-07-11T21:20:42.977Z,18.73
2023-07-11T21:23:09.970Z,16.08
2023-07-11T21:25:38.891Z,14.80
2023-07-11T21:28:14.968Z,15.50
2023-07-11T21:30:44.716Z,17.90
2023-07-11T21:33:13.768Z,14.02
2023-07-11T21:35:41.019Z,13.55
2023-07-11T21:38:18.046Z,15.88
2023-07-11T21:40:45.096Z,15.90
2023-07-11T21:43:11.987Z,15.80
2023-07-11T21:45:39.991Z,15.63
2023-07-11T21:48:07.671Z,17.15
2023-07-11T21:50:50.958Z,16.20
2023-07-11T21:53:19.179Z,15.75
2023-07-11T21:55:47.768Z,14.75
2023-07-11T21:58:23.040Z,15.77
2023-07-11T22:00:50.724Z,16.55
2023-07-11T22:03:25.853Z,18.15
2023-07-11T22:05:54.786Z,16.45
2023-07-11T22:08:26.528Z,17.17
2023-07-11T22:10:53.576Z,15.85
2023-07-11T22:13:22.947Z,15.98
2023-07-11T22:15:50.785Z,16.35
2023-07-11T22:18:22.191Z,15.25
2023-07-11T22:20:49.584Z,17.87
2023-07-11T22:23:16.566Z,16.27
2023-07-11T22:25:43.553Z,16.52
2023-07-11T22:28:19.286Z,16.95
2023-07-11T22:30:47.346Z,19.77
2023-07-11T22:33:16.561Z,16.58
2023-07-11T22:35:43.905Z,18.27
2023-07-11T22:38:17.638Z,20.55
2023-07-11T22:40:49.266Z,16.90
2023-07-11T22:43:18.782Z,17.75
2023-07-11T22:45:48.961Z,17.12
2023-07-11T22:48:18.878Z,16.52
2023-07-11T22:50:50.418Z,18.35
2023-07-11T22:53:29.260Z,15.38
2023-07-11T22:55:59.447Z,18.17
2023-07-11T22:58:34.844Z,15.43
2023-07-11T23:01:03.775Z,15.98
2023-07-11T23:03:31.146Z,15.07
2023-07-11T23:06:01.323Z,16.05
2023-07-11T23:08:30.419Z,17.87
2023-07-11T23:10:58.477Z,15.38
2023-07-11T23:13:25.412Z,17.85
2023-07-11T23:15:54.919Z,15.98
2023-07-11T23:18:25.302Z,17.33
2023-07-11T23:20:54.934Z,17.52
2023-07-11T23:23:31.788Z,15.82
2023-07-11T23:30:56.188Z,16.20
2023-07-11T23:33:25.201Z,19.02
2023-07-11T23:35:57.202Z,16.55
2023-07-11T23:38:25.127Z,18.27
2023-07-11T23:40:53.343Z,17.87
2023-07-11T23:43:22.213Z,17.08
2023-07-11T23:45:53.483Z,17.23
2023-07-11T23:48:21.817Z,16.42
2023-07-11T23:50:54.050Z,15.65
2023-07-11T23:53:21.251Z,15.68
2023-07-11T23:55:49.626Z,18.98
2023-07-11T23:58:22.427Z,16.92
